Sibu, Malaysia
Current Conditions -  °F | °C
As of 12:00 PM on Thursday 29 Jan 2015 (Local Time) from WBGS Reporting Station
Broken Clouds Broken Clouds  
Wind Chill: 82°   Ceiling: 15000
Heat Index: 87°   Visibility: 6mi
Dew Point: 72°   Wind: 2mph
Humidity: 70%   Direction: 260°W
Pressure: 29.85"   Gusts: NA
Location:  2.3°N, 111.83°E
Report Text: WBGS 290400Z 26002KT 9999 FEW016 BKN150 28/22 Q1011
Loading
Personal Weather Stations






























Interactive Weather Map New forecast layout! Learn more

10-Day Weather Forecast

Advertisements
Track Severe Weather on mobile